TimeCST,TemperatureF,Dew PointF,Humidity,Sea Level PressureIn,VisibilityMPH,Wind Direction,Wind SpeedMPH,Gust SpeedMPH,PrecipitationIn,Events,Conditions,WindDirDegrees,DateUTC
12:12 AM,39.2,35.6,87,29.88,10.0,NNW,12.7,-,N/A,,Overcast,330,2013-01-13 06:12:00
12:28 AM,39.2,35.6,87,29.87,10.0,NNW,10.4,-,N/A,,Overcast,330,2013-01-13 06:28:00
12:38 AM,37.4,35.6,93,29.88,10.0,NNW,12.7,20.7,0.00,Rain,Light Rain,330,2013-01-13 06:38:00
12:53 AM,37.9,35.1,89,29.89,10.0,NW,10.4,-,0.00,,Overcast,320,2013-01-13 06:53:00
1:53 AM,39.0,36.0,89,29.94,10.0,NW,9.2,19.6,N/A,,Overcast,310,2013-01-13 07:53:00
2:53 AM,39.0,35.1,86,29.97,10.0,NW,11.5,23.0,N/A,,Overcast,310,2013-01-13 08:53:00
3:53 AM,37.0,34.0,89,29.99,8.0,WNW,15.0,23.0,0.04,Rain-Thunderstorm,Light Thunderstorms and Rain,300,2013-01-13 09:53:00
4:17 AM,37.4,33.8,87,29.95,10.0,NNW,13.8,21.9,0.05,,Overcast,340,2013-01-13 10:17:00
4:53 AM,36.0,32.0,86,29.95,10.0,North,16.1,-,0.05,Rain-Thunderstorm,Light Rain,350,2013-01-13 10:53:00
5:12 AM,35.6,32.0,87,29.96,10.0,NNW,15.0,23.0,0.00,,Overcast,340,2013-01-13 11:12:00
5:53 AM,36.0,33.1,89,30.05,10.0,WNW,9.2,-,0.01,Rain,Light Rain,300,2013-01-13 11:53:00
6:00 AM,35.6,33.8,93,30.03,10.0,NW,10.4,-,0.00,Thunderstorm,Overcast,320,2013-01-13 12:00:00
6:15 AM,35.6,32.0,87,30.02,10.0,NNW,13.8,-,0.00,,Overcast,330,2013-01-13 12:15:00
6:53 AM,34.0,30.9,89,30.05,10.0,NNW,13.8,-,0.00,,Overcast,330,2013-01-13 12:53:00
7:33 AM,33.8,28.4,81,30.08,10.0,NNW,12.7,20.7,N/A,,Overcast,340,2013-01-13 13:33:00
7:53 AM,34.0,30.0,85,30.08,10.0,NNW,11.5,-,N/A,,Overcast,340,2013-01-13 13:53:00
8:09 AM,33.8,28.4,81,30.09,10.0,NNW,16.1,21.9,N/A,,Overcast,340,2013-01-13 14:09:00
8:20 AM,33.8,30.2,87,30.09,10.0,NNW,11.5,-,N/A,,Overcast,340,2013-01-13 14:20:00
8:53 AM,34.0,30.0,85,30.12,10.0,NNW,13.8,-,N/A,,Overcast,340,2013-01-13 14:53:00
9:12 AM,33.8,28.4,81,30.13,10.0,NNW,13.8,21.9,N/A,,Overcast,340,2013-01-13 15:12:00
9:31 AM,35.6,30.2,81,30.14,10.0,NNW,10.4,20.7,N/A,,Overcast,340,2013-01-13 15:31:00
9:53 AM,35.1,30.0,82,30.15,10.0,NNW,17.3,26.5,N/A,,Overcast,330,2013-01-13 15:53:00
10:30 AM,35.6,28.4,75,30.16,10.0,NNW,17.3,25.3,N/A,,Overcast,340,2013-01-13 16:30:00
10:53 AM,36.0,28.9,76,30.17,10.0,NW,16.1,21.9,N/A,,Overcast,320,2013-01-13 16:53:00
11:53 AM,37.9,28.9,70,30.17,10.0,North,13.8,-,N/A,,Mostly Cloudy,350,2013-01-13 17:53:00
12:48 PM,42.8,30.2,61,30.14,10.0,North,12.7,-,N/A,,Partly Cloudy,360,2013-01-13 18:48:00
12:53 PM,42.1,30.9,65,30.14,10.0,North,13.8,-,N/A,,Partly Cloudy,360,2013-01-13 18:53:00
1:53 PM,44.1,30.9,60,30.14,10.0,NNW,12.7,20.7,N/A,,Clear,330,2013-01-13 19:53:00
2:53 PM,45.0,30.0,56,30.15,10.0,NNW,16.1,21.9,N/A,,Clear,340,2013-01-13 20:53:00
3:53 PM,46.0,30.0,54,30.15,10.0,North,12.7,-,N/A,,Clear,350,2013-01-13 21:53:00
4:53 PM,45.0,28.0,52,30.16,10.0,North,9.2,-,N/A,,Clear,350,2013-01-13 22:53:00
5:53 PM,41.0,28.0,60,30.18,10.0,NNW,6.9,-,N/A,,Clear,340,2013-01-13 23:53:00
6:53 PM,39.0,28.0,65,30.19,10.0,North,6.9,-,N/A,,Clear,350,2013-01-14 00:53:00
7:53 PM,37.0,28.0,70,30.21,10.0,North,6.9,-,N/A,,Clear,360,2013-01-14 01:53:00
8:53 PM,36.0,25.0,64,30.22,10.0,North,11.5,-,N/A,,Clear,10,2013-01-14 02:53:00
9:53 PM,35.1,24.1,64,30.23,10.0,North,9.2,-,N/A,,Clear,360,2013-01-14 03:53:00
10:53 PM,33.1,23.0,66,30.23,10.0,NNE,10.4,-,N/A,,Clear,20,2013-01-14 04:53:00
11:53 PM,32.0,21.9,66,30.26,10.0,North,10.4,-,N/A,,Clear,10,2013-01-14 05:53:00